Airfield :







YOU CAN JOIN US ON...

 
LOGIN :

Register | Disclaimer

   EN    FR    IT 

 









Legend :    VFR   Marginal VFR   IFR   Intensive IFR   Very Intensive IFR
Visi :
Ceiling :
>= 8 km
>= 3000ft
5 to 8 km
1000 to 3000 ft
1500m to 5 km
500 to 1000 ft
800 to 1500m
200 to 500 ft
< 800m
< 200 ft
Symbols :   Thunderstorms  Fog  Heavy snow  Heavy precipitations  Wind > 20 kt







- Airport Elevation : 534 ft
- IATA code : PQI


KPQI - Northern Maine Regional Arpt At Presque Isle

CURRENT METAR :
  • 220456Z AUTO 18009KT 10SM SCT042 OVC055 03/M07 A2992 RMK AO2 SLP178 T00281067 400781039

EXPIRED METARs :
  • 220356Z AUTO 18010KT 10SM OVC080 03/M07 A2993 RMK AO2 SLP180 T00281072
  • 220256Z AUTO 19009KT 10SM CLR 03/M07 A2995 RMK AO2 SLP184 T00281067 58016

TAF KPQI
Valid from the 22 at 06:00 until the 23 at 06:00 UTC


220540Z 2206/2306 17008KT P6SM VCSH OVC050
FM221400 07007KT 3SM -SNRA OVC015
FM221700 05012G18KT 3SM -RA OVC008
FM230300 04008KT 2SM -RASN OVC008
KZBW FIR / North America



MET'MAP, your aeronautical weather chart ! - Copyright ORBIFLY December 2007 - Disclaimer

ORBIFLY MET'MAP TEAM :

Programming & Development : Alexandra Zaïnal
Concept & Development : Baudouin d'Aumeries
Co-Development & Prog : Marc-Olivier Méhu
Technical & hardware support : Manuel Goepfert

Contact : metmap@orbifly.com




SOURCES & CREDITS :

   NOAA